sensor_id;sensor_type;location;lat;lon;timestamp;P1;durP1;ratioP1;P2;durP2;ratioP2
12788;SDS011;6458;42.710;23.192;2023-06-04T00:02:11;6.67;;;6.00;;
12788;SDS011;6458;42.710;23.192;2023-06-04T00:04:37;6.90;;;6.30;;
12788;SDS011;6458;42.710;23.192;2023-06-04T00:07:06;7.13;;;6.40;;
12788;SDS011;6458;42.710;23.192;2023-06-04T00:09:33;7.30;;;6.80;;
12788;SDS011;6458;42.710;23.192;2023-06-04T00:11:59;8.53;;;6.90;;
12788;SDS011;6458;42.710;23.192;2023-06-04T00:14:26;7.90;;;7.20;;
12788;SDS011;6458;42.710;23.192;2023-06-04T00:16:53;9.80;;;8.80;;
12788;SDS011;6458;42.710;23.192;2023-06-04T00:19:19;11.97;;;10.77;;
12788;SDS011;6458;42.710;23.192;2023-06-04T00:21:46;15.07;;;13.37;;
12788;SDS011;6458;42.710;23.192;2023-06-04T00:24:14;15.00;;;13.40;;
12788;SDS011;6458;42.710;23.192;2023-06-04T00:26:41;16.30;;;12.47;;
12788;SDS011;6458;42.710;23.192;2023-06-04T00:29:07;14.43;;;12.90;;
12788;SDS011;6458;42.710;23.192;2023-06-04T00:31:34;13.27;;;11.87;;
12788;SDS011;6458;42.710;23.192;2023-06-04T00:34:02;12.87;;;11.57;;
12788;SDS011;6458;42.710;23.192;2023-06-04T00:36:29;11.37;;;10.33;;
12788;SDS011;6458;42.710;23.192;2023-06-04T00:38:56;7.83;;;7.23;;
12788;SDS011;6458;42.710;23.192;2023-06-04T00:41:24;9.53;;;8.70;;
12788;SDS011;6458;42.710;23.192;2023-06-04T00:43:51;8.80;;;7.90;;
12788;SDS011;6458;42.710;23.192;2023-06-04T00:46:21;9.87;;;8.97;;
12788;SDS011;6458;42.710;23.192;2023-06-04T00:48:48;12.40;;;11.03;;
12788;SDS011;6458;42.710;23.192;2023-06-04T00:51:15;9.53;;;8.77;;
12788;SDS011;6458;42.710;23.192;2023-06-04T00:53:42;8.70;;;8.00;;
12788;SDS011;6458;42.710;23.192;2023-06-04T00:56:09;9.67;;;8.77;;
12788;SDS011;6458;42.710;23.192;2023-06-04T00:58:38;9.47;;;8.57;;
12788;SDS011;6458;42.710;23.192;2023-06-04T01:01:06;12.10;;;10.23;;
12788;SDS011;6458;42.710;23.192;2023-06-04T01:03:34;12.00;;;10.73;;
12788;SDS011;6458;42.710;23.192;2023-06-04T01:06:07;12.47;;;9.73;;
12788;SDS011;6458;42.710;23.192;2023-06-04T01:08:36;11.40;;;9.93;;
12788;SDS011;6458;42.710;23.192;2023-06-04T01:11:03;10.87;;;9.10;;
12788;SDS011;6458;42.710;23.192;2023-06-04T01:13:30;9.87;;;8.87;;
12788;SDS011;6458;42.710;23.192;2023-06-04T01:15:58;7.73;;;6.97;;
12788;SDS011;6458;42.710;23.192;2023-06-04T01:18:26;8.70;;;7.80;;
12788;SDS011;6458;42.710;23.192;2023-06-04T01:20:54;8.53;;;7.83;;
12788;SDS011;6458;42.710;23.192;2023-06-04T01:23:25;8.90;;;7.97;;
12788;SDS011;6458;42.710;23.192;2023-06-04T01:25:59;8.93;;;8.13;;
12788;SDS011;6458;42.710;23.192;2023-06-04T01:28:27;8.00;;;7.20;;
12788;SDS011;6458;42.710;23.192;2023-06-04T01:30:54;9.93;;;7.13;;
12788;SDS011;6458;42.710;23.192;2023-06-04T01:33:23;8.13;;;7.33;;
12788;SDS011;6458;42.710;23.192;2023-06-04T01:35:49;7.47;;;6.77;;
12788;SDS011;6458;42.710;23.192;2023-06-04T01:38:16;8.13;;;7.43;;
12788;SDS011;6458;42.710;23.192;2023-06-04T01:40:43;6.80;;;6.20;;
12788;SDS011;6458;42.710;23.192;2023-06-04T01:43:10;7.27;;;6.53;;
12788;SDS011;6458;42.710;23.192;2023-06-04T01:45:36;6.60;;;5.90;;
12788;SDS011;6458;42.710;23.192;2023-06-04T01:48:03;6.63;;;5.90;;
12788;SDS011;6458;42.710;23.192;2023-06-04T01:50:32;6.23;;;5.73;;
12788;SDS011;6458;42.710;23.192;2023-06-04T01:52:58;7.40;;;6.50;;
12788;SDS011;6458;42.710;23.192;2023-06-04T01:55:25;6.47;;;5.93;;
12788;SDS011;6458;42.710;23.192;2023-06-04T01:57:54;6.90;;;6.40;;
12788;SDS011;6458;42.710;23.192;2023-06-04T02:00:21;6.73;;;6.23;;
12788;SDS011;6458;42.710;23.192;2023-06-04T02:02:48;6.50;;;5.90;;
12788;SDS011;6458;42.710;23.192;2023-06-04T02:05:14;5.97;;;5.43;;
12788;SDS011;6458;42.710;23.192;2023-06-04T02:07:43;4.53;;;4.23;;
12788;SDS011;6458;42.710;23.192;2023-06-04T02:10:10;5.23;;;4.83;;
12788;SDS011;6458;42.710;23.192;2023-06-04T02:12:41;5.47;;;5.07;;
12788;SDS011;6458;42.710;23.192;2023-06-04T02:15:11;5.33;;;4.90;;
12788;SDS011;6458;42.710;23.192;2023-06-04T02:17:37;5.50;;;5.10;;
12788;SDS011;6458;42.710;23.192;2023-06-04T02:20:05;5.40;;;4.90;;
12788;SDS011;6458;42.710;23.192;2023-06-04T02:22:35;5.57;;;5.17;;
12788;SDS011;6458;42.710;23.192;2023-06-04T02:25:03;5.30;;;4.60;;
12788;SDS011;6458;42.710;23.192;2023-06-04T02:27:30;5.27;;;4.77;;
12788;SDS011;6458;42.710;23.192;2023-06-04T02:29:57;4.87;;;4.57;;
12788;SDS011;6458;42.710;23.192;2023-06-04T02:32:23;4.80;;;4.50;;
12788;SDS011;6458;42.710;23.192;2023-06-04T02:34:50;4.50;;;4.20;;
12788;SDS011;6458;42.710;23.192;2023-06-04T02:37:17;4.63;;;4.33;;
12788;SDS011;6458;42.710;23.192;2023-06-04T02:39:43;4.70;;;4.40;;
12788;SDS011;6458;42.710;23.192;2023-06-04T02:42:11;4.63;;;4.23;;
12788;SDS011;6458;42.710;23.192;2023-06-04T02:44:38;4.77;;;4.37;;
12788;SDS011;6458;42.710;23.192;2023-06-04T02:47:05;4.10;;;3.90;;
12788;SDS011;6458;42.710;23.192;2023-06-04T02:49:32;4.60;;;4.20;;
12788;SDS011;6458;42.710;23.192;2023-06-04T02:51:59;4.60;;;4.20;;
12788;SDS011;6458;42.710;23.192;2023-06-04T02:54:25;4.27;;;3.97;;
12788;SDS011;6458;42.710;23.192;2023-06-04T02:56:52;4.20;;;3.87;;
12788;SDS011;6458;42.710;23.192;2023-06-04T02:59:20;4.40;;;4.00;;
12788;SDS011;6458;42.710;23.192;2023-06-04T03:01:47;4.37;;;3.97;;
12788;SDS011;6458;42.710;23.192;2023-06-04T03:04:14;4.50;;;4.20;;
12788;SDS011;6458;42.710;23.192;2023-06-04T03:06:41;4.10;;;3.80;;
12788;SDS011;6458;42.710;23.192;2023-06-04T03:09:11;4.30;;;4.00;;
12788;SDS011;6458;42.710;23.192;2023-06-04T03:11:38;4.10;;;3.87;;
12788;SDS011;6458;42.710;23.192;2023-06-04T03:14:05;4.57;;;4.17;;
12788;SDS011;6458;42.710;23.192;2023-06-04T03:16:33;4.87;;;4.00;;
12788;SDS011;6458;42.710;23.192;2023-06-04T03:19:00;4.77;;;4.37;;
12788;SDS011;6458;42.710;23.192;2023-06-04T03:21:26;4.30;;;4.03;;
12788;SDS011;6458;42.710;23.192;2023-06-04T03:23:54;3.87;;;3.67;;
12788;SDS011;6458;42.710;23.192;2023-06-04T03:26:20;4.33;;;4.03;;
12788;SDS011;6458;42.710;23.192;2023-06-04T03:28:47;4.67;;;4.27;;
12788;SDS011;6458;42.710;23.192;2023-06-04T03:31:14;6.37;;;4.17;;
12788;SDS011;6458;42.710;23.192;2023-06-04T03:33:42;4.40;;;4.10;;
12788;SDS011;6458;42.710;23.192;2023-06-04T03:36:08;4.40;;;4.10;;
12788;SDS011;6458;42.710;23.192;2023-06-04T03:38:35;5.10;;;4.70;;
12788;SDS011;6458;42.710;23.192;2023-06-04T03:41:02;4.47;;;4.17;;
12788;SDS011;6458;42.710;23.192;2023-06-04T03:43:28;4.80;;;4.40;;
12788;SDS011;6458;42.710;23.192;2023-06-04T03:45:55;4.57;;;4.23;;
12788;SDS011;6458;42.710;23.192;2023-06-04T03:48:22;5.00;;;4.70;;
12788;SDS011;6458;42.710;23.192;2023-06-04T03:50:50;4.80;;;4.50;;
12788;SDS011;6458;42.710;23.192;2023-06-04T03:53:16;4.27;;;4.07;;
12788;SDS011;6458;42.710;23.192;2023-06-04T03:55:43;4.87;;;4.47;;
12788;SDS011;6458;42.710;23.192;2023-06-04T03:58:10;4.87;;;4.10;;
12788;SDS011;6458;42.710;23.192;2023-06-04T04:00:37;4.87;;;4.47;;
12788;SDS011;6458;42.710;23.192;2023-06-04T04:03:03;4.60;;;4.30;;
12788;SDS011;6458;42.710;23.192;2023-06-04T04:05:34;4.80;;;4.40;;
12788;SDS011;6458;42.710;23.192;2023-06-04T04:08:03;4.63;;;4.33;;
12788;SDS011;6458;42.710;23.192;2023-06-04T04:10:31;4.77;;;4.37;;
12788;SDS011;6458;42.710;23.192;2023-06-04T04:12:57;4.97;;;4.57;;
12788;SDS011;6458;42.710;23.192;2023-06-04T04:15:24;4.80;;;4.50;;
12788;SDS011;6458;42.710;23.192;2023-06-04T04:17:51;4.50;;;4.20;;
12788;SDS011;6458;42.710;23.192;2023-06-04T04:20:17;4.30;;;4.10;;
12788;SDS011;6458;42.710;23.192;2023-06-04T04:22:44;5.20;;;4.67;;
12788;SDS011;6458;42.710;23.192;2023-06-04T04:25:12;5.20;;;4.80;;
12788;SDS011;6458;42.710;23.192;2023-06-04T04:27:39;4.60;;;4.30;;
12788;SDS011;6458;42.710;23.192;2023-06-04T04:30:06;4.97;;;4.53;;
12788;SDS011;6458;42.710;23.192;2023-06-04T04:32:33;5.10;;;4.67;;
12788;SDS011;6458;42.710;23.192;2023-06-04T04:35:03;5.33;;;4.87;;
12788;SDS011;6458;42.710;23.192;2023-06-04T04:37:30;5.00;;;4.70;;
12788;SDS011;6458;42.710;23.192;2023-06-04T04:39:57;6.20;;;5.70;;
12788;SDS011;6458;42.710;23.192;2023-06-04T04:42:25;6.73;;;6.13;;
12788;SDS011;6458;42.710;23.192;2023-06-04T04:44:52;6.70;;;6.20;;
12788;SDS011;6458;42.710;23.192;2023-06-04T04:47:18;7.63;;;6.93;;
12788;SDS011;6458;42.710;23.192;2023-06-04T04:49:45;8.27;;;7.27;;
12788;SDS011;6458;42.710;23.192;2023-06-04T04:52:12;8.73;;;7.90;;
12788;SDS011;6458;42.710;23.192;2023-06-04T04:54:38;7.70;;;7.10;;
12788;SDS011;6458;42.710;23.192;2023-06-04T04:57:05;9.77;;;8.33;;
12788;SDS011;6458;42.710;23.192;2023-06-04T04:59:33;9.27;;;8.37;;
12788;SDS011;6458;42.710;23.192;2023-06-04T05:02:00;9.10;;;8.30;;
12788;SDS011;6458;42.710;23.192;2023-06-04T05:04:27;8.60;;;7.77;;
12788;SDS011;6458;42.710;23.192;2023-06-04T05:06:54;9.47;;;8.60;;
12788;SDS011;6458;42.710;23.192;2023-06-04T05:09:20;9.27;;;8.33;;
12788;SDS011;6458;42.710;23.192;2023-06-04T05:11:47;9.20;;;8.40;;
12788;SDS011;6458;42.710;23.192;2023-06-04T05:14:14;10.07;;;8.47;;
12788;SDS011;6458;42.710;23.192;2023-06-04T05:16:42;8.63;;;7.83;;
12788;SDS011;6458;42.710;23.192;2023-06-04T05:19:09;8.63;;;7.73;;
12788;SDS011;6458;42.710;23.192;2023-06-04T05:21:36;8.83;;;8.03;;
12788;SDS011;6458;42.710;23.192;2023-06-04T05:24:03;8.67;;;7.87;;
12788;SDS011;6458;42.710;23.192;2023-06-04T05:26:30;9.30;;;8.50;;
12788;SDS011;6458;42.710;23.192;2023-06-04T05:28:58;8.90;;;8.03;;
12788;SDS011;6458;42.710;23.192;2023-06-04T05:31:25;9.37;;;8.37;;
12788;SDS011;6458;42.710;23.192;2023-06-04T05:33:55;8.37;;;7.57;;
12788;SDS011;6458;42.710;23.192;2023-06-04T05:36:22;8.87;;;8.07;;
12788;SDS011;6458;42.710;23.192;2023-06-04T05:38:49;9.27;;;8.27;;
12788;SDS011;6458;42.710;23.192;2023-06-04T05:41:23;8.17;;;7.33;;
12788;SDS011;6458;42.710;23.192;2023-06-04T05:43:51;9.17;;;8.27;;
12788;SDS011;6458;42.710;23.192;2023-06-04T05:46:17;9.03;;;8.13;;
12788;SDS011;6458;42.710;23.192;2023-06-04T05:48:44;8.00;;;7.30;;
12788;SDS011;6458;42.710;23.192;2023-06-04T05:51:13;7.87;;;7.17;;
12788;SDS011;6458;42.710;23.192;2023-06-04T05:53:40;8.03;;;7.23;;
12788;SDS011;6458;42.710;23.192;2023-06-04T05:56:07;7.70;;;7.10;;
12788;SDS011;6458;42.710;23.192;2023-06-04T05:58:33;7.60;;;6.90;;
12788;SDS011;6458;42.710;23.192;2023-06-04T06:01:00;8.13;;;7.33;;
12788;SDS011;6458;42.710;23.192;2023-06-04T06:03:28;8.07;;;7.27;;
12788;SDS011;6458;42.710;23.192;2023-06-04T06:05:54;7.50;;;6.90;;
12788;SDS011;6458;42.710;23.192;2023-06-04T06:08:23;7.47;;;6.87;;
12788;SDS011;6458;42.710;23.192;2023-06-04T06:10:50;7.67;;;6.97;;
12788;SDS011;6458;42.710;23.192;2023-06-04T06:13:17;7.83;;;7.13;;
12788;SDS011;6458;42.710;23.192;2023-06-04T06:15:45;7.90;;;7.20;;
12788;SDS011;6458;42.710;23.192;2023-06-04T06:18:12;7.93;;;7.23;;
12788;SDS011;6458;42.710;23.192;2023-06-04T06:20:38;7.57;;;6.97;;
12788;SDS011;6458;42.710;23.192;2023-06-04T06:23:06;8.33;;;6.80;;
12788;SDS011;6458;42.710;23.192;2023-06-04T06:25:34;7.73;;;6.83;;
12788;SDS011;6458;42.710;23.192;2023-06-04T06:28:01;6.73;;;6.23;;
12788;SDS011;6458;42.710;23.192;2023-06-04T06:30:27;7.17;;;6.53;;
12788;SDS011;6458;42.710;23.192;2023-06-04T06:32:54;7.37;;;6.67;;
12788;SDS011;6458;42.710;23.192;2023-06-04T06:35:21;7.13;;;6.53;;
12788;SDS011;6458;42.710;23.192;2023-06-04T06:37:51;8.17;;;7.37;;
12788;SDS011;6458;42.710;23.192;2023-06-04T06:40:18;7.40;;;6.90;;
12788;SDS011;6458;42.710;23.192;2023-06-04T06:42:49;9.00;;;7.13;;
12788;SDS011;6458;42.710;23.192;2023-06-04T06:45:16;7.30;;;6.63;;
12788;SDS011;6458;42.710;23.192;2023-06-04T06:47:43;7.63;;;7.00;;
12788;SDS011;6458;42.710;23.192;2023-06-04T06:50:10;7.40;;;6.80;;
12788;SDS011;6458;42.710;23.192;2023-06-04T06:52:37;8.27;;;7.47;;
12788;SDS011;6458;42.710;23.192;2023-06-04T06:55:04;8.47;;;7.40;;
12788;SDS011;6458;42.710;23.192;2023-06-04T06:57:31;8.43;;;7.47;;
12788;SDS011;6458;42.710;23.192;2023-06-04T07:00:00;7.50;;;6.93;;
12788;SDS011;6458;42.710;23.192;2023-06-04T07:02:26;7.93;;;7.23;;
12788;SDS011;6458;42.710;23.192;2023-06-04T07:04:54;7.07;;;6.57;;
12788;SDS011;6458;42.710;23.192;2023-06-04T07:07:20;8.10;;;7.40;;
12788;SDS011;6458;42.710;23.192;2023-06-04T07:09:47;8.03;;;7.37;;
12788;SDS011;6458;42.710;23.192;2023-06-04T07:12:14;7.07;;;6.57;;
12788;SDS011;6458;42.710;23.192;2023-06-04T07:14:41;8.00;;;7.40;;
12788;SDS011;6458;42.710;23.192;2023-06-04T07:17:10;9.03;;;8.10;;
12788;SDS011;6458;42.710;23.192;2023-06-04T07:19:36;6.90;;;6.33;;
12788;SDS011;6458;42.710;23.192;2023-06-04T07:22:03;8.07;;;7.37;;
12788;SDS011;6458;42.710;23.192;2023-06-04T07:24:30;8.23;;;7.43;;
12788;SDS011;6458;42.710;23.192;2023-06-04T07:27:00;8.50;;;7.80;;
12788;SDS011;6458;42.710;23.192;2023-06-04T07:29:27;9.83;;;8.10;;
12788;SDS011;6458;42.710;23.192;2023-06-04T07:31:53;7.97;;;7.33;;
12788;SDS011;6458;42.710;23.192;2023-06-04T07:34:22;10.90;;;6.83;;
12788;SDS011;6458;42.710;23.192;2023-06-04T07:36:48;7.47;;;6.87;;
12788;SDS011;6458;42.710;23.192;2023-06-04T07:39:15;7.47;;;6.77;;
12788;SDS011;6458;42.710;23.192;2023-06-04T07:41:42;7.37;;;6.80;;
12788;SDS011;6458;42.710;23.192;2023-06-04T07:44:08;9.03;;;8.23;;
12788;SDS011;6458;42.710;23.192;2023-06-04T07:46:35;11.00;;;8.20;;
12788;SDS011;6458;42.710;23.192;2023-06-04T07:49:02;8.17;;;7.37;;
12788;SDS011;6458;42.710;23.192;2023-06-04T07:51:30;11.20;;;8.27;;
12788;SDS011;6458;42.710;23.192;2023-06-04T07:53:57;10.77;;;9.00;;
12788;SDS011;6458;42.710;23.192;2023-06-04T07:56:23;10.50;;;9.50;;
12788;SDS011;6458;42.710;23.192;2023-06-04T07:58:50;10.17;;;9.17;;
12788;SDS011;6458;42.710;23.192;2023-06-04T08:01:17;11.87;;;9.67;;
12788;SDS011;6458;42.710;23.192;2023-06-04T08:03:43;12.67;;;9.43;;
12788;SDS011;6458;42.710;23.192;2023-06-04T08:06:11;10.00;;;9.00;;
12788;SDS011;6458;42.710;23.192;2023-06-04T08:08:43;10.13;;;9.27;;
12788;SDS011;6458;42.710;23.192;2023-06-04T08:11:11;9.53;;;8.63;;
12788;SDS011;6458;42.710;23.192;2023-06-04T08:13:38;10.37;;;9.37;;
12788;SDS011;6458;42.710;23.192;2023-06-04T08:16:05;10.20;;;9.20;;
12788;SDS011;6458;42.710;23.192;2023-06-04T08:18:32;10.43;;;8.97;;
12788;SDS011;6458;42.710;23.192;2023-06-04T08:20:59;9.87;;;8.93;;
12788;SDS011;6458;42.710;23.192;2023-06-04T08:23:26;9.07;;;8.17;;
12788;SDS011;6458;42.710;23.192;2023-06-04T08:25:54;9.87;;;8.77;;
12788;SDS011;6458;42.710;23.192;2023-06-04T08:28:21;9.73;;;8.57;;
12788;SDS011;6458;42.710;23.192;2023-06-04T08:30:47;10.63;;;9.33;;
12788;SDS011;6458;42.710;23.192;2023-06-04T08:33:14;11.63;;;10.10;;
12788;SDS011;6458;42.710;23.192;2023-06-04T08:35:40;11.20;;;8.57;;
12788;SDS011;6458;42.710;23.192;2023-06-04T08:38:07;10.47;;;9.43;;
12788;SDS011;6458;42.710;23.192;2023-06-04T08:40:34;10.30;;;9.30;;
12788;SDS011;6458;42.710;23.192;2023-06-04T08:43:02;10.93;;;9.27;;
12788;SDS011;6458;42.710;23.192;2023-06-04T08:45:30;11.23;;;10.17;;
12788;SDS011;6458;42.710;23.192;2023-06-04T08:47:58;13.50;;;9.97;;
12788;SDS011;6458;42.710;23.192;2023-06-04T08:50:26;14.17;;;10.80;;
12788;SDS011;6458;42.710;23.192;2023-06-04T08:52:53;10.23;;;9.23;;
12788;SDS011;6458;42.710;23.192;2023-06-04T08:55:20;11.70;;;10.50;;
12788;SDS011;6458;42.710;23.192;2023-06-04T08:57:48;14.43;;;10.60;;
12788;SDS011;6458;42.710;23.192;2023-06-04T09:00:17;12.90;;;11.60;;
12788;SDS011;6458;42.710;23.192;2023-06-04T09:02:44;13.77;;;11.87;;
12788;SDS011;6458;42.710;23.192;2023-06-04T09:05:14;12.73;;;11.43;;
12788;SDS011;6458;42.710;23.192;2023-06-04T09:07:44;12.87;;;11.57;;
12788;SDS011;6458;42.710;23.192;2023-06-04T09:10:12;15.00;;;11.10;;
12788;SDS011;6458;42.710;23.192;2023-06-04T09:12:40;15.80;;;11.50;;
12788;SDS011;6458;42.710;23.192;2023-06-04T09:15:09;12.33;;;10.37;;
12788;SDS011;6458;42.710;23.192;2023-06-04T09:17:38;12.10;;;10.80;;
12788;SDS011;6458;42.710;23.192;2023-06-04T09:20:05;13.30;;;11.73;;
12788;SDS011;6458;42.710;23.192;2023-06-04T09:22:34;13.33;;;11.90;;
12788;SDS011;6458;42.710;23.192;2023-06-04T09:25:03;10.63;;;9.63;;
12788;SDS011;6458;42.710;23.192;2023-06-04T09:27:37;11.70;;;10.47;;
12788;SDS011;6458;42.710;23.192;2023-06-04T09:30:04;12.00;;;10.63;;
12788;SDS011;6458;42.710;23.192;2023-06-04T09:32:31;11.83;;;10.33;;
12788;SDS011;6458;42.710;23.192;2023-06-04T09:35:09;11.57;;;10.33;;
12788;SDS011;6458;42.710;23.192;2023-06-04T09:37:36;11.87;;;10.73;;
12788;SDS011;6458;42.710;23.192;2023-06-04T09:40:03;13.20;;;10.63;;
12788;SDS011;6458;42.710;23.192;2023-06-04T09:42:41;11.63;;;10.53;;
12788;SDS011;6458;42.710;23.192;2023-06-04T09:45:08;11.60;;;10.50;;
12788;SDS011;6458;42.710;23.192;2023-06-04T09:47:38;10.13;;;9.23;;
12788;SDS011;6458;42.710;23.192;2023-06-04T09:50:05;11.47;;;10.37;;
12788;SDS011;6458;42.710;23.192;2023-06-04T09:52:34;11.60;;;10.27;;
12788;SDS011;6458;42.710;23.192;2023-06-04T09:55:01;11.90;;;10.73;;
12788;SDS011;6458;42.710;23.192;2023-06-04T09:57:28;11.23;;;10.20;;
12788;SDS011;6458;42.710;23.192;2023-06-04T09:59:55;13.03;;;10.97;;
12788;SDS011;6458;42.710;23.192;2023-06-04T10:02:23;12.20;;;10.97;;
12788;SDS011;6458;42.710;23.192;2023-06-04T10:04:53;11.90;;;10.70;;
12788;SDS011;6458;42.710;23.192;2023-06-04T10:07:22;12.27;;;11.17;;
12788;SDS011;6458;42.710;23.192;2023-06-04T10:09:50;12.27;;;11.07;;
12788;SDS011;6458;42.710;23.192;2023-06-04T10:12:17;11.80;;;10.67;;
12788;SDS011;6458;42.710;23.192;2023-06-04T10:14:47;12.07;;;10.87;;
12788;SDS011;6458;42.710;23.192;2023-06-04T10:17:16;11.93;;;10.73;;
12788;SDS011;6458;42.710;23.192;2023-06-04T10:19:43;11.63;;;9.97;;
12788;SDS011;6458;42.710;23.192;2023-06-04T10:22:11;12.40;;;10.77;;
12788;SDS011;6458;42.710;23.192;2023-06-04T10:24:38;12.83;;;11.53;;
12788;SDS011;6458;42.710;23.192;2023-06-04T10:27:07;13.03;;;11.73;;
12788;SDS011;6458;42.710;23.192;2023-06-04T10:29:36;11.43;;;10.33;;
12788;SDS011;6458;42.710;23.192;2023-06-04T10:32:03;11.60;;;10.60;;
12788;SDS011;6458;42.710;23.192;2023-06-04T10:34:30;12.00;;;10.80;;
12788;SDS011;6458;42.710;23.192;2023-06-04T10:36:57;11.97;;;10.87;;
12788;SDS011;6458;42.710;23.192;2023-06-04T10:39:27;11.07;;;9.97;;
12788;SDS011;6458;42.710;23.192;2023-06-04T10:41:57;10.80;;;9.80;;
12788;SDS011;6458;42.710;23.192;2023-06-04T10:44:25;10.90;;;9.90;;
12788;SDS011;6458;42.710;23.192;2023-06-04T10:46:52;11.77;;;10.67;;
12788;SDS011;6458;42.710;23.192;2023-06-04T10:49:26;14.90;;;10.70;;
12788;SDS011;6458;42.710;23.192;2023-06-04T10:51:52;11.10;;;9.63;;
12788;SDS011;6458;42.710;23.192;2023-06-04T10:54:24;10.37;;;9.47;;
12788;SDS011;6458;42.710;23.192;2023-06-04T10:56:51;10.40;;;9.33;;
12788;SDS011;6458;42.710;23.192;2023-06-04T10:59:18;11.50;;;10.30;;
12788;SDS011;6458;42.710;23.192;2023-06-04T11:01:46;11.33;;;10.23;;
12788;SDS011;6458;42.710;23.192;2023-06-04T11:04:20;10.97;;;9.10;;
12788;SDS011;6458;42.710;23.192;2023-06-04T11:06:47;10.77;;;9.10;;
12788;SDS011;6458;42.710;23.192;2023-06-04T11:09:14;12.77;;;9.70;;
12788;SDS011;6458;42.710;23.192;2023-06-04T11:11:42;10.73;;;9.73;;
12788;SDS011;6458;42.710;23.192;2023-06-04T11:14:09;9.70;;;8.83;;
12788;SDS011;6458;42.710;23.192;2023-06-04T11:16:37;9.50;;;8.20;;
12788;SDS011;6458;42.710;23.192;2023-06-04T11:19:05;10.63;;;9.63;;
12788;SDS011;6458;42.710;23.192;2023-06-04T11:21:33;9.80;;;8.87;;
12788;SDS011;6458;42.710;23.192;2023-06-04T11:24:01;9.57;;;8.67;;
12788;SDS011;6458;42.710;23.192;2023-06-04T11:26:29;9.70;;;8.80;;
12788;SDS011;6458;42.710;23.192;2023-06-04T11:28:56;9.47;;;8.57;;
12788;SDS011;6458;42.710;23.192;2023-06-04T11:31:23;9.07;;;8.23;;
12788;SDS011;6458;42.710;23.192;2023-06-04T11:33:50;9.33;;;8.43;;
12788;SDS011;6458;42.710;23.192;2023-06-04T11:36:26;9.60;;;8.67;;
12788;SDS011;6458;42.710;23.192;2023-06-04T11:38:56;9.00;;;8.20;;
12788;SDS011;6458;42.710;23.192;2023-06-04T11:41:23;9.77;;;8.87;;
12788;SDS011;6458;42.710;23.192;2023-06-04T11:43:50;9.67;;;8.87;;
12788;SDS011;6458;42.710;23.192;2023-06-04T11:46:16;9.00;;;8.20;;
12788;SDS011;6458;42.710;23.192;2023-06-04T11:48:43;9.73;;;8.77;;
12788;SDS011;6458;42.710;23.192;2023-06-04T11:51:10;10.00;;;9.00;;
12788;SDS011;6458;42.710;23.192;2023-06-04T11:53:38;9.53;;;8.83;;
12788;SDS011;6458;42.710;23.192;2023-06-04T11:56:05;10.20;;;9.00;;
12788;SDS011;6458;42.710;23.192;2023-06-04T11:58:32;9.87;;;9.07;;
12788;SDS011;6458;42.710;23.192;2023-06-04T12:01:00;9.30;;;8.50;;
12788;SDS011;6458;42.710;23.192;2023-06-04T12:03:36;9.40;;;8.50;;
12788;SDS011;6458;42.710;23.192;2023-06-04T12:06:13;9.97;;;9.07;;
12788;SDS011;6458;42.710;23.192;2023-06-04T12:08:46;10.67;;;9.87;;
12788;SDS011;6458;42.710;23.192;2023-06-04T12:11:26;10.77;;;9.73;;
12788;SDS011;6458;42.710;23.192;2023-06-04T12:13:54;10.53;;;9.47;;
12788;SDS011;6458;42.710;23.192;2023-06-04T12:16:21;9.30;;;8.50;;
12788;SDS011;6458;42.710;23.192;2023-06-04T12:18:47;10.30;;;9.40;;
12788;SDS011;6458;42.710;23.192;2023-06-04T12:21:22;10.67;;;9.87;;
12788;SDS011;6458;42.710;23.192;2023-06-04T12:23:54;10.43;;;9.47;;
12788;SDS011;6458;42.710;23.192;2023-06-04T12:26:21;11.10;;;10.03;;
12788;SDS011;6458;42.710;23.192;2023-06-04T12:29:00;11.60;;;10.40;;
12788;SDS011;6458;42.710;23.192;2023-06-04T12:31:26;11.50;;;10.47;;
12788;SDS011;6458;42.710;23.192;2023-06-04T12:33:58;10.97;;;9.87;;
12788;SDS011;6458;42.710;23.192;2023-06-04T12:36:25;11.27;;;10.27;;
12788;SDS011;6458;42.710;23.192;2023-06-04T12:38:51;10.67;;;9.87;;
12788;SDS011;6458;42.710;23.192;2023-06-04T12:41:20;12.20;;;11.07;;
12788;SDS011;6458;42.710;23.192;2023-06-04T12:43:47;11.97;;;10.97;;
12788;SDS011;6458;42.710;23.192;2023-06-04T12:46:13;12.20;;;10.73;;
12788;SDS011;6458;42.710;23.192;2023-06-04T12:48:41;10.80;;;9.80;;
12788;SDS011;6458;42.710;23.192;2023-06-04T12:51:08;10.50;;;9.70;;
12788;SDS011;6458;42.710;23.192;2023-06-04T12:53:35;11.47;;;10.57;;
12788;SDS011;6458;42.710;23.192;2023-06-04T12:56:02;11.50;;;10.20;;
12788;SDS011;6458;42.710;23.192;2023-06-04T12:58:30;11.90;;;10.70;;
12788;SDS011;6458;42.710;23.192;2023-06-04T13:00:57;11.30;;;10.30;;
12788;SDS011;6458;42.710;23.192;2023-06-04T13:03:23;11.10;;;10.20;;
12788;SDS011;6458;42.710;23.192;2023-06-04T13:05:50;11.37;;;10.50;;
12788;SDS011;6458;42.710;23.192;2023-06-04T13:08:18;11.07;;;10.17;;
12788;SDS011;6458;42.710;23.192;2023-06-04T13:10:45;12.33;;;11.27;;
12788;SDS011;6458;42.710;23.192;2023-06-04T13:13:12;11.70;;;10.70;;
12788;SDS011;6458;42.710;23.192;2023-06-04T13:15:42;11.70;;;10.70;;
12788;SDS011;6458;42.710;23.192;2023-06-04T13:18:09;11.40;;;10.40;;
12788;SDS011;6458;42.710;23.192;2023-06-04T13:20:36;12.03;;;10.97;;
12788;SDS011;6458;42.710;23.192;2023-06-04T13:23:03;11.47;;;10.47;;
12788;SDS011;6458;42.710;23.192;2023-06-04T13:25:30;11.63;;;10.50;;
12788;SDS011;6458;42.710;23.192;2023-06-04T13:27:57;12.47;;;11.37;;
12788;SDS011;6458;42.710;23.192;2023-06-04T13:30:24;11.43;;;10.43;;
12788;SDS011;6458;42.710;23.192;2023-06-04T13:32:52;11.97;;;10.93;;
12788;SDS011;6458;42.710;23.192;2023-06-04T13:35:19;11.10;;;10.20;;
12788;SDS011;6458;42.710;23.192;2023-06-04T13:37:46;12.20;;;11.07;;
12788;SDS011;6458;42.710;23.192;2023-06-04T13:40:13;11.33;;;10.43;;
12788;SDS011;6458;42.710;23.192;2023-06-04T13:42:39;12.17;;;10.87;;
12788;SDS011;6458;42.710;23.192;2023-06-04T13:45:08;10.57;;;9.77;;
12788;SDS011;6458;42.710;23.192;2023-06-04T13:47:34;10.03;;;9.33;;
12788;SDS011;6458;42.710;23.192;2023-06-04T13:50:03;9.80;;;9.10;;
12788;SDS011;6458;42.710;23.192;2023-06-04T13:52:30;9.13;;;8.33;;
12788;SDS011;6458;42.710;23.192;2023-06-04T13:54:57;10.33;;;9.43;;
12788;SDS011;6458;42.710;23.192;2023-06-04T13:57:24;9.43;;;8.67;;
12788;SDS011;6458;42.710;23.192;2023-06-04T13:59:51;10.10;;;9.20;;
12788;SDS011;6458;42.710;23.192;2023-06-04T14:02:18;10.03;;;9.23;;
12788;SDS011;6458;42.710;23.192;2023-06-04T14:04:45;9.13;;;8.33;;
12788;SDS011;6458;42.710;23.192;2023-06-04T14:07:13;9.60;;;8.80;;
12788;SDS011;6458;42.710;23.192;2023-06-04T14:09:39;9.10;;;8.40;;
12788;SDS011;6458;42.710;23.192;2023-06-04T14:12:07;9.57;;;8.77;;
12788;SDS011;6458;42.710;23.192;2023-06-04T14:14:34;9.20;;;8.50;;
12788;SDS011;6458;42.710;23.192;2023-06-04T14:17:02;9.37;;;8.43;;
12788;SDS011;6458;42.710;23.192;2023-06-04T14:19:29;10.70;;;9.63;;
12788;SDS011;6458;42.710;23.192;2023-06-04T14:21:55;9.60;;;8.97;;
12788;SDS011;6458;42.710;23.192;2023-06-04T14:24:24;9.60;;;8.20;;
12788;SDS011;6458;42.710;23.192;2023-06-04T14:26:51;9.23;;;8.37;;
12788;SDS011;6458;42.710;23.192;2023-06-04T14:29:17;9.37;;;8.77;;
12788;SDS011;6458;42.710;23.192;2023-06-04T14:31:45;10.40;;;9.40;;
12788;SDS011;6458;42.710;23.192;2023-06-04T14:34:11;13.97;;;10.87;;
12788;SDS011;6458;42.710;23.192;2023-06-04T14:36:38;12.13;;;11.03;;
12788;SDS011;6458;42.710;23.192;2023-06-04T14:39:05;12.07;;;10.93;;
12788;SDS011;6458;42.710;23.192;2023-06-04T14:41:33;12.20;;;11.17;;